O69 weather

Petaluma Municipal Airport
Petaluma, California, United States

Public forecast

Using degrees Fahrenheit for public forecast. Weather courtesy of forecast.io.

METAR (pilot weather report)

Retrieved UTC (0 seconds ago):

TAF (pilot weather forecast)

Forecast is more than 12 hours old.

Closest forecast is Napa County Airport, 15.6 nm (28.8 km) E. Retrieved 2016/02/08 00:21 UTC (4 years ago):

TAF KAPC 082320Z 0900/0924 09008KT P6SM SKC FM090600 05004KT P6SM SKC FM091900 10008KT P6SM SKC